createdAt,value
2017-12-12T00:00:01.026Z,2.20
2017-12-12T00:02:28.570Z,2.10
2017-12-12T00:04:56.079Z,2.10
2017-12-12T00:07:23.562Z,2.20
2017-12-12T00:09:51.048Z,2.40
2017-12-12T00:12:18.575Z,2.50
2017-12-12T00:14:46.086Z,2.40
2017-12-12T00:17:13.590Z,2.40
2017-12-12T00:19:41.967Z,2.40
2017-12-12T00:22:09.484Z,2.50
2017-12-12T00:24:36.983Z,2.50
2017-12-12T00:27:04.502Z,2.60
2017-12-12T00:29:31.989Z,2.70
2017-12-12T00:32:00.279Z,2.50
2017-12-12T00:34:27.770Z,2.50
2017-12-12T00:36:55.252Z,2.60
2017-12-12T00:39:22.804Z,2.70
2017-12-12T00:41:50.353Z,2.70
2017-12-12T00:44:17.876Z,2.80
2017-12-12T00:46:45.389Z,2.80
2017-12-12T00:49:12.884Z,2.80
2017-12-12T00:51:41.145Z,2.90
2017-12-12T00:54:08.652Z,2.80
2017-12-12T00:56:36.144Z,2.80
2017-12-12T00:59:03.671Z,2.80
2017-12-12T01:01:31.146Z,2.80
2017-12-12T01:03:58.635Z,2.80
2017-12-12T01:06:26.183Z,2.70
2017-12-12T01:08:53.745Z,2.70
2017-12-12T01:11:21.237Z,2.80
2017-12-12T01:13:48.695Z,2.80
2017-12-12T01:16:16.192Z,2.90
2017-12-12T01:18:43.659Z,2.90
2017-12-12T01:21:11.150Z,2.90
2017-12-12T01:23:39.538Z,3.10
2017-12-12T01:26:07.813Z,3.10
2017-12-12T01:28:35.284Z,3.10
2017-12-12T01:31:02.825Z,3.10
2017-12-12T01:33:31.124Z,3.10
2017-12-12T01:35:58.657Z,3.10
2017-12-12T01:38:26.226Z,3.10
2017-12-12T01:40:53.746Z,3.20
2017-12-12T01:43:21.239Z,3.10
2017-12-12T01:45:48.741Z,3.20
2017-12-12T01:48:16.250Z,3.20
2017-12-12T01:50:44.535Z,3.20
2017-12-12T01:53:12.088Z,3.20
2017-12-12T01:55:39.634Z,3.20
2017-12-12T01:58:07.116Z,3.20
2017-12-12T02:00:34.616Z,3.30
2017-12-12T02:03:02.095Z,3.40
2017-12-12T02:05:29.595Z,3.40
2017-12-12T02:07:57.084Z,3.40
2017-12-12T02:10:24.602Z,3.40
2017-12-12T02:12:52.860Z,3.00
2017-12-12T02:15:20.347Z,3.00
2017-12-12T02:17:47.860Z,3.00
2017-12-12T02:20:15.449Z,2.80
2017-12-12T02:22:42.990Z,2.70
2017-12-12T02:25:10.479Z,2.60
2017-12-12T02:27:38.141Z,2.60
2017-12-12T02:30:05.627Z,2.70
2017-12-12T02:32:33.120Z,2.70
2017-12-12T02:35:00.613Z,2.70
2017-12-12T02:37:28.132Z,2.60
2017-12-12T02:39:55.616Z,2.60
2017-12-12T02:42:23.115Z,2.50
2017-12-12T02:44:50.647Z,2.40
2017-12-12T02:47:18.191Z,2.50
2017-12-12T02:49:46.467Z,2.70
2017-12-12T02:52:14.019Z,2.70
2017-12-12T02:54:41.657Z,2.70
2017-12-12T02:57:09.163Z,2.60
2017-12-12T02:59:36.664Z,2.60
2017-12-12T03:02:04.138Z,2.60
2017-12-12T03:04:31.723Z,2.60
2017-12-12T03:06:59.974Z,2.60
2017-12-12T03:09:27.558Z,2.60
2017-12-12T03:11:55.083Z,2.50
2017-12-12T03:14:22.890Z,2.40
2017-12-12T03:16:50.423Z,2.30
2017-12-12T03:19:17.910Z,2.30
2017-12-12T03:21:45.372Z,2.30
2017-12-12T03:24:12.873Z,2.30
2017-12-12T03:26:40.604Z,2.20
2017-12-12T03:29:08.139Z,2.20
2017-12-12T03:31:35.638Z,2.20
2017-12-12T03:34:03.123Z,2.00
2017-12-12T03:36:30.603Z,2.00
2017-12-12T03:38:58.843Z,2.10
2017-12-12T03:41:26.324Z,2.10
2017-12-12T03:43:54.618Z,1.90
2017-12-12T03:46:22.867Z,1.90
2017-12-12T03:48:50.397Z,1.90
2017-12-12T03:51:17.876Z,1.90
2017-12-12T03:53:45.374Z,1.80
2017-12-12T03:56:12.835Z,1.90
2017-12-12T03:58:40.378Z,2.00
2017-12-12T04:01:07.951Z,2.00
2017-12-12T04:03:35.468Z,2.00
2017-12-12T04:06:02.931Z,2.00
2017-12-12T04:08:31.206Z,2.00
2017-12-12T04:10:58.692Z,2.10
2017-12-12T04:13:26.200Z,2.10
2017-12-12T04:15:53.704Z,2.10
2017-12-12T04:18:21.931Z,1.90
2017-12-12T04:20:49.412Z,1.90
2017-12-12T04:23:16.894Z,1.90
2017-12-12T04:25:44.381Z,1.90
2017-12-12T04:28:11.915Z,1.90
2017-12-12T04:30:39.422Z,2.00
2017-12-12T04:33:06.912Z,2.10
2017-12-12T04:35:34.417Z,2.10
2017-12-12T04:38:01.911Z,2.10
2017-12-12T04:40:29.410Z,2.10
2017-12-12T04:42:56.909Z,2.10
2017-12-12T04:45:24.394Z,2.00
2017-12-12T04:47:51.883Z,1.90
2017-12-12T04:50:19.382Z,2.00
2017-12-12T04:52:46.862Z,2.00
2017-12-12T04:55:14.331Z,2.00
2017-12-12T04:57:42.558Z,2.20
2017-12-12T05:00:10.056Z,2.20
2017-12-12T05:02:37.668Z,2.10
2017-12-12T05:05:05.193Z,2.10
2017-12-12T05:07:32.690Z,2.10
2017-12-12T05:10:00.172Z,2.10
2017-12-12T05:12:27.684Z,2.10
2017-12-12T05:14:55.163Z,2.10
2017-12-12T05:17:22.703Z,2.10
2017-12-12T05:19:50.204Z,2.10
2017-12-12T05:22:17.690Z,2.10
2017-12-12T05:24:45.999Z,2.10
2017-12-12T05:27:13.498Z,2.10
2017-12-12T05:29:41.004Z,2.20
2017-12-12T05:32:08.587Z,2.10
2017-12-12T05:34:36.053Z,2.10
2017-12-12T05:37:03.543Z,2.10
2017-12-12T05:39:31.034Z,2.10
2017-12-12T05:41:58.512Z,2.10
2017-12-12T05:44:26.062Z,2.20
2017-12-12T05:46:56.939Z,2.10
2017-12-12T05:49:24.480Z,2.20
2017-12-12T05:51:51.973Z,2.20
2017-12-12T05:54:19.450Z,2.20
2017-12-12T05:56:46.950Z,2.20
2017-12-12T05:59:14.402Z,2.10
2017-12-12T06:01:41.909Z,2.10
2017-12-12T06:04:09.407Z,2.10
2017-12-12T06:06:36.901Z,2.20
2017-12-12T06:09:04.475Z,2.20
2017-12-12T06:11:31.969Z,2.10
2017-12-12T06:13:59.558Z,2.20
2017-12-12T06:16:27.036Z,2.20
2017-12-12T06:18:54.519Z,2.30
2017-12-12T06:21:22.071Z,2.40
2017-12-12T06:23:49.578Z,2.50
2017-12-12T06:26:17.044Z,2.40
2017-12-12T06:28:44.674Z,2.50
2017-12-12T06:31:12.178Z,2.50
2017-12-12T06:33:39.677Z,2.60
2017-12-12T06:36:07.186Z,2.60
2017-12-12T06:38:34.646Z,2.70
2017-12-12T06:41:02.129Z,2.70
2017-12-12T06:43:30.371Z,2.70
2017-12-12T06:45:58.446Z,2.70
2017-12-12T06:48:25.920Z,2.60
2017-12-12T06:50:53.410Z,2.60
2017-12-12T06:53:21.642Z,2.50
2017-12-12T06:55:49.176Z,2.50
2017-12-12T06:58:16.858Z,2.50
2017-12-12T07:00:45.431Z,2.40
2017-12-12T07:03:12.945Z,2.50
2017-12-12T07:05:40.556Z,2.50
2017-12-12T07:08:08.048Z,2.50
2017-12-12T07:10:37.057Z,2.50
2017-12-12T07:13:04.754Z,2.50
2017-12-12T07:15:33.143Z,2.50
2017-12-12T07:18:00.661Z,2.50
2017-12-12T07:20:28.155Z,2.40
2017-12-12T07:22:55.652Z,2.50
2017-12-12T07:25:23.133Z,2.50
2017-12-12T07:27:50.591Z,2.50
2017-12-12T07:30:18.121Z,2.40
2017-12-12T07:32:46.377Z,2.40
2017-12-12T07:35:16.313Z,2.40
2017-12-12T07:37:45.934Z,2.40
2017-12-12T07:40:13.517Z,2.40
2017-12-12T07:42:45.263Z,2.40
2017-12-12T07:45:12.876Z,2.40
2017-12-12T07:52:57.168Z,2.50
2017-12-12T07:55:27.974Z,2.50
2017-12-12T07:58:03.271Z,2.50
2017-12-12T08:00:37.675Z,2.50
2017-12-12T08:03:13.376Z,2.50
2017-12-12T08:05:41.724Z,2.50
2017-12-12T08:08:14.639Z,2.60
2017-12-12T08:10:42.175Z,2.60
2017-12-12T08:13:09.684Z,2.70
2017-12-12T08:15:50.636Z,2.70
2017-12-12T08:18:18.194Z,2.60
2017-12-12T08:20:45.673Z,2.60
2017-12-12T08:23:13.490Z,2.60
2017-12-12T08:25:42.057Z,2.70
2017-12-12T08:28:10.972Z,2.70
2017-12-12T08:30:38.471Z,2.70
2017-12-12T08:33:06.260Z,2.70
2017-12-12T08:38:57.550Z,2.70
2017-12-12T08:44:25.449Z,2.70
2017-12-12T08:47:08.901Z,2.80
2017-12-12T08:53:11.263Z,2.90
2017-12-12T08:55:39.584Z,3.00
2017-12-12T08:58:07.073Z,2.90
2017-12-12T09:00:35.574Z,3.00
2017-12-12T09:03:03.102Z,3.00
2017-12-12T09:05:30.566Z,3.00
2017-12-12T09:07:58.039Z,3.00
2017-12-12T09:10:25.510Z,3.10
2017-12-12T09:12:53.009Z,3.10
2017-12-12T09:15:20.470Z,3.20
2017-12-12T09:17:47.922Z,3.10
2017-12-12T09:20:15.378Z,3.10
2017-12-12T09:22:42.862Z,3.20
2017-12-12T09:25:10.330Z,3.20
2017-12-12T09:27:37.815Z,3.30
2017-12-12T09:30:05.316Z,3.30
2017-12-12T09:32:33.562Z,3.30
2017-12-12T09:35:01.026Z,3.30
2017-12-12T09:37:28.482Z,3.30
2017-12-12T09:39:56.047Z,3.20
2017-12-12T09:42:23.544Z,3.30
2017-12-12T09:44:50.982Z,3.40
2017-12-12T09:47:18.457Z,3.30
2017-12-12T09:49:45.967Z,3.40
2017-12-12T09:52:13.608Z,3.40
2017-12-12T09:54:41.099Z,3.40
2017-12-12T09:57:08.571Z,3.40
2017-12-12T09:59:36.826Z,3.40
2017-12-12T10:02:04.298Z,3.40
2017-12-12T10:04:31.947Z,3.40
2017-12-12T10:06:59.412Z,3.40
2017-12-12T10:09:26.988Z,3.40
2017-12-12T10:11:54.440Z,3.40
2017-12-12T10:14:22.677Z,3.30
2017-12-12T10:16:50.162Z,3.30
2017-12-12T10:19:17.620Z,3.30
2017-12-12T10:21:45.849Z,3.30
2017-12-12T10:24:13.312Z,3.30
2017-12-12T10:26:40.791Z,3.20
2017-12-12T10:29:08.248Z,3.20
2017-12-12T10:31:35.694Z,3.10
2017-12-12T10:34:03.163Z,3.20
2017-12-12T10:36:30.694Z,3.20
2017-12-12T10:38:58.296Z,3.20
2017-12-12T10:41:26.559Z,3.20
2017-12-12T10:43:54.034Z,3.20
2017-12-12T10:46:21.486Z,3.20
2017-12-12T10:48:48.963Z,3.10
2017-12-12T10:51:16.421Z,3.10
2017-12-12T10:53:43.923Z,3.10
2017-12-12T10:56:11.420Z,3.10
2017-12-12T10:58:39.691Z,3.10
2017-12-12T11:01:07.166Z,3.10
2017-12-12T11:03:35.392Z,3.10
2017-12-12T11:06:02.874Z,3.10
2017-12-12T11:08:30.331Z,3.00
2017-12-12T11:10:57.791Z,3.00
2017-12-12T11:13:26.094Z,3.10
2017-12-12T11:15:53.530Z,3.10
2017-12-12T11:18:21.031Z,3.10
2017-12-12T11:20:48.534Z,3.10
2017-12-12T11:23:16.003Z,3.10
2017-12-12T11:25:44.297Z,3.10
2017-12-12T11:28:11.860Z,3.00
2017-12-12T11:30:39.352Z,3.00
2017-12-12T11:33:06.833Z,2.90
2017-12-12T11:35:34.337Z,2.90
2017-12-12T11:38:01.789Z,2.90
2017-12-12T11:40:29.249Z,2.90
2017-12-12T11:42:56.742Z,2.80
2017-12-12T11:45:24.209Z,2.70
2017-12-12T11:47:51.677Z,2.70
2017-12-12T11:50:19.145Z,2.60
2017-12-12T11:52:46.615Z,2.60
2017-12-12T11:55:14.915Z,2.50
2017-12-12T11:57:42.407Z,2.50
2017-12-12T12:00:10.057Z,2.40
2017-12-12T12:02:37.534Z,2.40
2017-12-12T12:05:05.031Z,2.40
2017-12-12T12:07:33.560Z,2.40
2017-12-12T12:10:01.075Z,2.40
2017-12-12T12:12:29.327Z,2.40
2017-12-12T12:14:56.803Z,2.30
2017-12-12T12:17:24.303Z,2.30
2017-12-12T12:19:51.811Z,2.30
2017-12-12T12:22:19.266Z,2.40
2017-12-12T12:24:47.516Z,2.30
2017-12-12T12:27:15.003Z,2.30
2017-12-12T12:29:43.244Z,2.40
2017-12-12T12:32:10.711Z,2.40
2017-12-12T12:34:38.185Z,2.40
2017-12-12T12:37:06.422Z,2.40
2017-12-12T12:39:34.155Z,2.50
2017-12-12T12:42:01.631Z,2.50
2017-12-12T12:44:29.123Z,2.50
2017-12-12T12:46:56.578Z,2.50
2017-12-12T12:49:24.046Z,2.40
2017-12-12T12:51:51.515Z,2.30
2017-12-12T12:54:19.808Z,2.40
2017-12-12T12:56:47.363Z,2.40
2017-12-12T12:59:14.871Z,2.40
2017-12-12T13:01:42.345Z,2.30
2017-12-12T13:04:09.841Z,2.40
2017-12-12T13:06:37.334Z,2.30
2017-12-12T13:09:04.851Z,2.30
2017-12-12T13:11:32.422Z,2.30
2017-12-12T13:13:59.919Z,2.50
2017-12-12T13:16:27.385Z,2.40
2017-12-12T13:18:54.846Z,2.40
2017-12-12T13:21:22.322Z,2.40
2017-12-12T13:23:50.572Z,2.30
2017-12-12T13:26:18.043Z,2.30
2017-12-12T13:28:45.530Z,2.30
2017-12-12T13:31:12.967Z,2.30
2017-12-12T13:33:40.455Z,2.30
2017-12-12T13:36:07.901Z,2.30
2017-12-12T13:38:35.350Z,2.40
2017-12-12T13:41:02.843Z,2.50
2017-12-12T13:43:30.322Z,2.40
2017-12-12T13:45:57.804Z,2.60
2017-12-12T13:48:25.269Z,2.60
2017-12-12T13:50:53.542Z,2.50
2017-12-12T13:53:21.018Z,2.50
2017-12-12T13:55:48.528Z,2.60
2017-12-12T13:58:15.999Z,2.60
2017-12-12T14:00:43.490Z,2.60
2017-12-12T14:03:11.732Z,2.60
2017-12-12T14:05:39.202Z,2.50
2017-12-12T14:08:06.665Z,2.60
2017-12-12T14:10:34.148Z,2.60
2017-12-12T14:13:01.620Z,2.50
2017-12-12T14:15:29.083Z,2.50
2017-12-12T14:17:57.543Z,2.40
2017-12-12T14:20:25.014Z,2.40
2017-12-12T14:22:52.470Z,2.40
2017-12-12T14:25:19.929Z,2.40
2017-12-12T14:27:47.377Z,2.40
2017-12-12T14:30:14.836Z,2.40
2017-12-12T14:32:42.307Z,2.40
2017-12-12T14:35:09.763Z,2.40
2017-12-12T14:37:37.278Z,2.40
2017-12-12T14:40:04.831Z,2.40
2017-12-12T14:42:33.054Z,2.40
2017-12-12T14:45:00.516Z,2.40
2017-12-12T14:47:27.975Z,2.30
2017-12-12T14:49:55.454Z,2.30
2017-12-12T14:52:22.926Z,2.30
2017-12-12T14:54:50.389Z,2.40
2017-12-12T14:57:18.615Z,2.40
2017-12-12T14:59:46.119Z,2.40
2017-12-12T15:02:15.317Z,2.50
2017-12-12T15:04:43.903Z,2.60
2017-12-12T15:07:11.383Z,2.60
2017-12-12T15:09:38.839Z,2.70
2017-12-12T15:12:06.298Z,2.80
2017-12-12T15:14:33.788Z,2.80
2017-12-12T15:17:01.286Z,2.90
2017-12-12T15:19:28.786Z,2.90
2017-12-12T15:21:56.303Z,2.90
2017-12-12T15:24:23.911Z,2.90
2017-12-12T15:26:51.370Z,2.90
2017-12-12T15:29:18.875Z,2.90
2017-12-12T15:31:46.359Z,3.00
2017-12-12T15:34:13.831Z,2.90
2017-12-12T15:36:41.331Z,3.00
2017-12-12T15:39:08.817Z,3.00
2017-12-12T15:41:37.040Z,3.10
2017-12-12T15:44:04.503Z,3.00
2017-12-12T15:46:32.003Z,3.00
2017-12-12T15:48:59.470Z,3.10
2017-12-12T15:51:26.914Z,3.20
2017-12-12T15:53:55.147Z,3.20
2017-12-12T15:56:22.598Z,3.20
2017-12-12T15:58:50.079Z,3.20
2017-12-12T16:01:17.545Z,3.30
2017-12-12T16:03:45.008Z,3.30
2017-12-12T16:06:12.455Z,3.30
2017-12-12T16:08:39.915Z,3.30
2017-12-12T16:11:07.394Z,3.30
2017-12-12T16:13:35.659Z,3.30
2017-12-12T16:16:03.136Z,3.30
2017-12-12T16:18:30.621Z,3.30
2017-12-12T16:20:58.090Z,3.30
2017-12-12T16:23:25.573Z,3.30
2017-12-12T16:25:53.036Z,3.40
2017-12-12T16:28:20.494Z,3.40
2017-12-12T16:30:47.962Z,3.50
2017-12-12T16:33:16.194Z,3.50
2017-12-12T16:35:43.652Z,3.50
2017-12-12T16:38:11.152Z,3.50
2017-12-12T16:40:39.418Z,3.50
2017-12-12T16:43:06.886Z,3.50
2017-12-12T16:45:35.118Z,3.60
2017-12-12T16:48:02.589Z,3.60
2017-12-12T16:50:30.096Z,3.70
2017-12-12T16:52:57.578Z,3.60
2017-12-12T16:55:25.049Z,3.60
2017-12-12T16:57:52.556Z,3.60
2017-12-12T17:00:20.105Z,3.50
2017-12-12T17:02:48.333Z,3.40
2017-12-12T17:05:15.804Z,3.40
2017-12-12T17:07:43.261Z,3.40
2017-12-12T17:10:10.726Z,3.40
2017-12-12T17:12:38.199Z,3.40
2017-12-12T17:15:05.671Z,3.40
2017-12-12T17:17:33.887Z,3.30
2017-12-12T17:20:01.358Z,3.30
2017-12-12T17:22:28.846Z,3.30
2017-12-12T17:24:56.296Z,3.30
2017-12-12T17:27:23.764Z,3.40
2017-12-12T17:29:51.992Z,3.40
2017-12-12T17:32:19.460Z,3.40
2017-12-12T17:34:46.958Z,3.50
2017-12-12T17:37:15.171Z,3.50
2017-12-12T17:39:42.699Z,3.50
2017-12-12T17:42:10.169Z,3.40
2017-12-12T17:44:37.637Z,3.50
2017-12-12T17:47:05.102Z,3.50
2017-12-12T17:49:32.575Z,3.50
2017-12-12T17:52:00.138Z,3.50
2017-12-12T17:54:27.638Z,3.50
2017-12-12T17:56:55.221Z,3.60
2017-12-12T17:59:22.838Z,3.60
2017-12-12T18:01:50.524Z,3.50
2017-12-12T18:04:18.744Z,3.50
2017-12-12T18:06:46.274Z,3.40
2017-12-12T18:09:13.774Z,3.50
2017-12-12T18:11:41.242Z,3.40
2017-12-12T18:14:08.747Z,3.30
2017-12-12T18:16:36.267Z,3.20
2017-12-12T18:19:03.757Z,3.20
2017-12-12T18:21:31.307Z,3.20
2017-12-12T18:23:58.825Z,3.20
2017-12-12T18:26:26.459Z,3.20
2017-12-12T18:28:53.949Z,3.10
2017-12-12T18:31:21.426Z,3.10
2017-12-12T18:33:49.188Z,3.00
2017-12-12T18:36:16.667Z,3.00
2017-12-12T18:38:44.188Z,2.90
2017-12-12T18:41:11.681Z,2.90
2017-12-12T18:43:39.150Z,2.90
2017-12-12T18:46:06.655Z,2.90
2017-12-12T18:48:34.226Z,2.80
2017-12-12T18:51:01.749Z,2.80
2017-12-12T18:53:29.226Z,2.80
2017-12-12T18:55:56.686Z,2.80
2017-12-12T18:58:24.188Z,2.80
2017-12-12T19:00:52.424Z,2.80
2017-12-12T19:03:19.922Z,2.80
2017-12-12T19:05:47.493Z,2.70
2017-12-12T19:08:14.999Z,2.60
2017-12-12T19:10:45.724Z,2.60
2017-12-12T19:13:13.313Z,2.60
2017-12-12T19:15:40.914Z,2.50
2017-12-12T19:18:08.431Z,2.50
2017-12-12T19:20:36.697Z,2.50
2017-12-12T19:23:04.447Z,2.40
2017-12-12T19:25:32.061Z,2.50
2017-12-12T19:28:00.415Z,2.40
2017-12-12T19:30:31.167Z,2.40
2017-12-12T19:33:03.871Z,2.50
2017-12-12T19:35:33.278Z,2.40
2017-12-12T19:38:02.424Z,2.40
2017-12-12T19:40:32.678Z,2.50
2017-12-12T19:43:00.458Z,2.40
2017-12-12T19:45:28.136Z,2.40
2017-12-12T19:48:03.745Z,2.30
2017-12-12T19:50:31.675Z,2.30
2017-12-12T19:53:09.087Z,2.30
2017-12-12T19:55:40.575Z,2.20
2017-12-12T19:58:10.499Z,2.20
2017-12-12T20:00:39.441Z,2.20
2017-12-12T20:03:25.277Z,2.30
2017-12-12T20:11:01.852Z,2.30
2017-12-12T20:16:30.080Z,2.50
2017-12-12T20:19:04.241Z,2.50
2017-12-12T20:22:16.534Z,2.60
2017-12-12T20:46:58.915Z,2.10
2017-12-12T20:49:32.994Z,2.00
2017-12-12T20:52:21.447Z,2.00
2017-12-12T20:54:50.552Z,1.90
2017-12-12T20:57:18.598Z,1.90
2017-12-12T21:18:36.883Z,1.80
2017-12-12T21:21:04.625Z,1.70
2017-12-12T21:23:45.006Z,1.70
2017-12-12T21:26:27.533Z,1.70
2017-12-12T21:28:57.352Z,1.80
2017-12-12T21:31:26.800Z,1.70
2017-12-12T21:34:00.361Z,1.80
2017-12-12T21:36:30.278Z,1.80
2017-12-12T21:38:57.784Z,1.80
2017-12-12T21:41:25.691Z,1.90
2017-12-12T21:44:08.272Z,1.90
2017-12-12T21:49:16.563Z,2.00
2017-12-12T21:51:53.482Z,2.10
2017-12-12T21:57:15.030Z,2.20
2017-12-12T21:59:42.708Z,2.20
2017-12-12T22:02:13.511Z,2.30
2017-12-12T22:04:43.446Z,2.30
2017-12-12T22:07:13.546Z,2.30
2017-12-12T22:09:44.167Z,2.30
2017-12-12T22:12:15.936Z,2.40
2017-12-12T22:14:44.021Z,2.40
2017-12-12T22:17:16.661Z,2.50
2017-12-12T22:19:45.958Z,2.50
2017-12-12T22:22:33.402Z,2.50
2017-12-12T22:27:59.479Z,2.60
2017-12-12T22:30:36.674Z,2.70
2017-12-12T22:33:21.926Z,2.70
2017-12-12T22:35:52.478Z,2.80
2017-12-12T22:38:21.340Z,2.80
2017-12-12T22:43:44.990Z,2.90
2017-12-12T22:46:14.303Z,2.90
2017-12-12T22:48:42.718Z,2.90
2017-12-12T22:51:11.336Z,2.90
2017-12-12T22:53:52.667Z,2.90
2017-12-12T22:56:21.117Z,2.90
2017-12-12T22:58:53.376Z,2.90
2017-12-12T23:01:21.100Z,2.90
2017-12-12T23:03:49.075Z,2.80
2017-12-12T23:06:23.210Z,2.80
2017-12-12T23:08:50.918Z,2.80
2017-12-12T23:11:18.454Z,2.70
2017-12-12T23:13:46.143Z,2.80
2017-12-12T23:16:13.630Z,2.80
2017-12-12T23:18:51.743Z,2.80
2017-12-12T23:21:21.347Z,2.80
2017-12-12T23:23:56.900Z,2.80
2017-12-12T23:26:30.860Z,2.80
2017-12-12T23:29:04.167Z,2.80
2017-12-12T23:31:31.825Z,2.80
2017-12-12T23:36:37.635Z,2.90
2017-12-12T23:39:08.666Z,3.00
